Cordell, OK (73632)

12:16 PM CST on February 07, 2016 (GMT -0600)
Clinton-Sherman | | Change Station
CLOSE
Current Station
Airport
Location: Clinton-Sherman,
Elevation: 1923 ft
Nearby Weather Stations

Elev 1923 ft 35.34 °N, 99.20 °W | Updated 23 minutes ago

Clear
Clear
56 °F
Feels Like 56 °F
N
20
Wind Variable Wind from NNE
Gusts 30 mph

Today
High -- | Low -- °F
--% Chance of Precip.
Yesterday
High -- | Low -- °F
Precip. -- in
Pressure 30.20 in
Visibility 10.0 miles
Clouds Clear
Dew Point 26 °F
Humidity 32%
Rainfall 0.00 in
Snow Depth Not available.
7:30 AM 6:09 PM
Waning Crescent, 1% visible
METAR KCSM 071753Z AUTO 03017G26KT 10SM CLR 13/M03 A3019 RMK AO2 PK WND 02026/1748 SLP225 T01331033 10133 21033 51009
Pressure 30.20 in
Visibility 10.0 miles
Clouds Clear
Dew Point 26 °F
Humidity 32%
Rainfall 0.00 in
Snow Depth Not available.
7:30 AM 6:09 PM
Waning Crescent, 1% visible
METAR KCSM 071753Z AUTO 03017G26KT 10SM CLR 13/M03 A3019 RMK AO2 PK WND 02026/1748 SLP225 T01331033 10133 21033 51009

10-Day Weather Forecast

Almanac

Astronomy

Feb. 07, 2016 Rise Set
Actual Time
Civil Twilight
Nautical Twilight
Astronomical Twilight
Moon
Length of Visible Light
Length of Day
Tomorrow will be .
, % of the Moon is Illuminated

Today's Extremes

State Highs State Lows

Community

WunderPhotos

Upload Photos

1,891,274 photos uploaded!

WunderBlog® & News

Nearby

Air Quality

  Air Quality AQ Index Pollutant
Not available.

Snow Depth

Station Depth Elevation

Earthquake Activity

City Distance Mag. Time & Date
Minimum magnitude displayed is 2.5.

Coastal Water Temperatures

Place Temperature

Stations

Nearby Weather Stations

Station Location Temp. Windchill Dew Point Humidity Wind Precip. Elev Updated Type
                   

Watches & Warnings

There are currently no watches in effect.